createdAt,value
2022-08-18T00:01:05.771Z,4.45
2022-08-18T00:03:56.109Z,3.92
2022-08-18T00:06:21.263Z,4.53
2022-08-18T00:08:47.876Z,4.07
2022-08-18T00:11:15.246Z,4.15
2022-08-18T00:13:41.829Z,4.05
2022-08-18T00:16:08.445Z,5.00
2022-08-18T00:18:35.099Z,4.20
2022-08-18T00:21:02.311Z,4.53
2022-08-18T00:23:29.886Z,4.88
2022-08-18T00:26:00.340Z,4.00
2022-08-18T00:28:27.031Z,5.10
2022-08-18T00:30:54.270Z,4.53
2022-08-18T00:33:21.733Z,4.72
2022-08-18T00:35:49.192Z,4.88
2022-08-18T00:38:24.257Z,4.68
2022-08-18T00:43:36.011Z,4.80
2022-08-18T00:46:06.047Z,4.90
2022-08-18T00:48:32.687Z,4.30
2022-08-18T00:51:08.249Z,5.03
2022-08-18T00:53:45.826Z,5.10
2022-08-18T00:56:20.717Z,4.75
2022-08-18T00:58:52.381Z,5.20
2022-08-18T01:01:23.560Z,5.18
2022-08-18T01:03:55.470Z,4.93
2022-08-18T01:06:37.443Z,4.80
2022-08-18T01:09:04.046Z,4.25
2022-08-18T01:11:45.952Z,4.95
2022-08-18T01:14:23.885Z,4.85
2022-08-18T01:17:11.550Z,4.30
2022-08-18T01:19:58.404Z,5.40
2022-08-18T01:22:31.442Z,5.45
2022-08-18T01:25:15.898Z,5.15
2022-08-18T01:27:43.247Z,5.55
2022-08-18T01:30:13.523Z,5.35
2022-08-18T01:32:41.067Z,5.18
2022-08-18T01:35:10.455Z,4.80
2022-08-18T01:37:37.777Z,5.50
2022-08-18T01:41:17.333Z,5.93
2022-08-18T01:42:56.506Z,5.45
2022-08-18T01:45:23.248Z,5.47
2022-08-18T01:47:50.677Z,5.20
2022-08-18T01:50:18.115Z,5.13
2022-08-18T01:52:45.254Z,4.90
2022-08-18T01:55:11.937Z,5.03
2022-08-18T01:57:44.953Z,5.50
2022-08-18T02:00:15.069Z,4.88
2022-08-18T02:02:43.108Z,5.10
2022-08-18T02:05:14.631Z,5.13
2022-08-18T02:07:41.284Z,5.15
2022-08-18T02:10:12.181Z,5.80
2022-08-18T02:12:44.321Z,4.57
2022-08-18T02:15:14.281Z,4.97
2022-08-18T02:17:43.418Z,5.90
2022-08-18T02:20:13.431Z,4.95
2022-08-18T02:22:40.994Z,5.25
2022-08-18T02:25:09.072Z,5.13
2022-08-18T02:27:35.858Z,5.65
2022-08-18T02:30:07.175Z,6.13
2022-08-18T02:32:34.662Z,5.15
2022-08-18T02:35:02.255Z,5.68
2022-08-18T02:37:31.131Z,5.95
2022-08-18T02:39:58.044Z,5.68
2022-08-18T02:42:25.793Z,5.90
2022-08-18T02:44:52.369Z,6.03
2022-08-18T02:47:21.105Z,6.00
2022-08-18T02:49:48.303Z,6.20
2022-08-18T02:52:17.342Z,5.90
2022-08-18T02:54:44.132Z,5.70
2022-08-18T02:57:12.378Z,6.13
2022-08-18T02:59:40.642Z,6.10
2022-08-18T03:02:09.218Z,5.82
2022-08-18T03:04:36.240Z,5.50
2022-08-18T03:07:05.938Z,5.47
2022-08-18T03:09:33.148Z,5.63
2022-08-18T03:12:00.512Z,5.57
2022-08-18T03:14:27.818Z,6.07
2022-08-18T03:16:55.343Z,6.15
2022-08-18T03:19:24.233Z,6.57
2022-08-18T03:21:51.097Z,6.63
2022-08-18T03:24:22.860Z,6.10
2022-08-18T03:26:51.738Z,5.63
2022-08-18T03:29:22.370Z,6.05
2022-08-18T03:31:49.727Z,5.55
2022-08-18T03:37:31.993Z,6.18
2022-08-18T03:39:59.217Z,6.30
2022-08-18T03:42:25.883Z,5.60
2022-08-18T03:44:52.526Z,6.35
2022-08-18T03:47:19.273Z,6.28
2022-08-18T03:49:46.040Z,5.78
2022-08-18T03:52:12.735Z,6.22
2022-08-18T03:54:39.704Z,6.70
2022-08-18T03:57:09.545Z,6.90
2022-08-18T03:59:36.488Z,6.97
2022-08-18T04:02:05.097Z,5.75
2022-08-18T04:04:32.351Z,6.20
2022-08-18T04:07:04.583Z,5.93
2022-08-18T04:09:32.961Z,5.70
2022-08-18T04:12:06.948Z,5.90
2022-08-18T04:14:33.606Z,6.45
2022-08-18T04:17:00.308Z,6.45
2022-08-18T04:19:27.982Z,7.13
2022-08-18T04:21:57.410Z,6.53
2022-08-18T04:24:26.586Z,5.78
2022-08-18T04:26:56.992Z,6.32
2022-08-18T04:29:24.086Z,5.85
2022-08-18T04:31:52.176Z,6.25
2022-08-18T04:34:20.826Z,6.18
2022-08-18T04:36:48.345Z,5.90
2022-08-18T04:39:15.717Z,6.05
2022-08-18T04:41:43.932Z,6.28
2022-08-18T04:44:12.321Z,6.10
2022-08-18T04:46:42.434Z,6.45
2022-08-18T04:49:10.744Z,6.60
2022-08-18T04:52:30.982Z,5.57
2022-08-18T04:54:29.104Z,5.72
2022-08-18T04:56:55.882Z,6.15
2022-08-18T04:59:22.631Z,5.57
2022-08-18T05:01:49.229Z,6.00
2022-08-18T05:04:17.504Z,5.80
2022-08-18T05:06:45.656Z,5.97
2022-08-18T05:09:16.713Z,6.25
2022-08-18T05:11:50.497Z,6.45
2022-08-18T05:14:17.814Z,5.80
2022-08-18T05:16:48.646Z,5.53
2022-08-18T05:19:23.399Z,5.65
2022-08-18T05:21:59.968Z,5.38
2022-08-18T05:24:36.824Z,5.85
2022-08-18T05:27:07.436Z,5.40
2022-08-18T05:29:41.908Z,5.40
2022-08-18T05:32:37.135Z,5.13
2022-08-18T05:35:09.518Z,5.90
2022-08-18T05:37:40.396Z,5.50
2022-08-18T05:40:11.399Z,6.07
2022-08-18T05:42:40.510Z,5.75
2022-08-18T05:45:12.565Z,5.80
2022-08-18T05:47:39.392Z,5.75
2022-08-18T05:50:11.356Z,6.22
2022-08-18T05:52:54.299Z,5.82
2022-08-18T05:55:52.642Z,6.25
2022-08-18T05:58:33.204Z,6.03
2022-08-18T06:01:14.036Z,6.85
2022-08-18T06:03:47.734Z,6.03
2022-08-18T06:06:20.935Z,6.15
2022-08-18T06:08:57.668Z,6.45
2022-08-18T06:11:25.909Z,6.85
2022-08-18T06:13:59.657Z,6.45
2022-08-18T06:16:39.335Z,6.75
2022-08-18T06:19:19.306Z,7.43
2022-08-18T06:22:02.186Z,7.05
2022-08-18T06:24:50.128Z,7.38
2022-08-18T06:27:33.318Z,7.15
2022-08-18T06:30:18.092Z,6.20
2022-08-18T06:32:46.793Z,6.68
2022-08-18T06:35:49.423Z,7.00
2022-08-18T06:38:38.812Z,6.68
2022-08-18T06:41:40.732Z,7.10
2022-08-18T06:44:10.231Z,7.32
2022-08-18T06:46:41.958Z,7.05
2022-08-18T06:49:13.011Z,7.13
2022-08-18T06:51:41.040Z,7.13
2022-08-18T06:54:26.920Z,6.97
2022-08-18T06:56:55.816Z,7.63
2022-08-18T06:59:29.391Z,7.00
2022-08-18T07:02:16.955Z,6.88
2022-08-18T07:05:00.403Z,7.25
2022-08-18T07:07:43.365Z,7.07
2022-08-18T07:10:31.290Z,7.72
2022-08-18T07:13:13.143Z,7.00
2022-08-18T07:15:40.760Z,7.43
2022-08-18T07:18:08.770Z,7.18
2022-08-18T07:20:53.983Z,7.05
2022-08-18T07:23:39.267Z,8.73
2022-08-18T07:26:18.107Z,7.80
2022-08-18T07:28:47.731Z,7.13
2022-08-18T07:31:40.716Z,7.45
2022-08-18T07:34:13.306Z,7.10
2022-08-18T07:36:47.615Z,7.18
2022-08-18T07:39:23.551Z,7.93
2022-08-18T07:42:01.956Z,7.40
2022-08-18T07:44:45.228Z,7.80
2022-08-18T07:47:26.419Z,7.10
2022-08-18T07:50:17.042Z,7.72
2022-08-18T07:52:51.079Z,7.78
2022-08-18T07:55:28.984Z,7.50
2022-08-18T07:58:30.741Z,7.13
2022-08-18T08:01:09.793Z,6.95
2022-08-18T08:03:37.632Z,7.50
2022-08-18T08:06:13.331Z,7.25
2022-08-18T08:08:44.195Z,7.13
2022-08-18T08:11:18.825Z,7.60
2022-08-18T08:14:01.932Z,6.40
2022-08-18T08:16:46.494Z,7.38
2022-08-18T08:19:14.120Z,7.60
2022-08-18T08:21:52.810Z,7.03
2022-08-18T08:24:32.357Z,6.75
2022-08-18T08:27:12.020Z,7.53
2022-08-18T08:29:59.814Z,6.63
2022-08-18T08:32:34.480Z,7.10
2022-08-18T08:35:06.302Z,7.05
2022-08-18T08:37:45.619Z,7.53
2022-08-18T08:40:33.096Z,6.65
2022-08-18T08:43:14.828Z,7.10
2022-08-18T08:45:48.760Z,6.97
2022-08-18T08:48:20.478Z,7.85
2022-08-18T08:50:54.582Z,7.47
2022-08-18T08:53:23.364Z,6.18
2022-08-18T08:56:00.153Z,7.38
2022-08-18T08:58:28.978Z,7.10
2022-08-18T09:00:56.414Z,7.40
2022-08-18T09:03:31.711Z,8.18
2022-08-18T09:06:30.269Z,7.03
2022-08-18T09:09:17.901Z,7.63
2022-08-18T09:12:06.962Z,8.07
2022-08-18T09:14:58.529Z,7.75
2022-08-18T09:17:33.802Z,7.40
2022-08-18T09:23:13.835Z,7.32
2022-08-18T09:25:42.112Z,7.38
2022-08-18T09:28:32.826Z,7.95
2022-08-18T09:31:19.894Z,6.80
2022-08-18T09:33:53.916Z,6.57
2022-08-18T09:36:31.185Z,5.93
2022-08-18T09:39:31.471Z,6.80
2022-08-18T09:42:07.132Z,7.15
2022-08-18T09:44:54.534Z,6.57
2022-08-18T09:47:21.732Z,7.00
2022-08-18T09:49:55.565Z,6.78
2022-08-18T09:52:24.356Z,6.47
2022-08-18T09:55:00.482Z,6.93
2022-08-18T09:57:30.481Z,5.97
2022-08-18T10:00:12.250Z,6.75
2022-08-18T10:02:40.234Z,6.80
2022-08-18T10:05:27.077Z,7.78
2022-08-18T10:08:30.080Z,7.32
2022-08-18T10:11:16.514Z,7.63
2022-08-18T10:14:07.367Z,7.75
2022-08-18T10:17:21.826Z,6.85
2022-08-18T10:20:06.004Z,7.15
2022-08-18T10:22:49.369Z,7.85
2022-08-18T10:25:38.867Z,8.13
2022-08-18T10:28:10.128Z,7.90
2022-08-18T10:30:56.663Z,8.35
2022-08-18T10:33:55.472Z,8.00
2022-08-18T10:36:37.429Z,8.73
2022-08-18T10:39:13.650Z,8.65
2022-08-18T10:41:54.988Z,8.70
2022-08-18T10:47:20.548Z,8.27
2022-08-18T10:49:52.730Z,8.90
2022-08-18T10:52:46.155Z,8.55
2022-08-18T10:55:48.589Z,8.30
2022-08-18T10:58:38.467Z,7.82
2022-08-18T11:01:10.049Z,8.75
2022-08-18T11:03:51.245Z,7.95
2022-08-18T11:06:26.119Z,7.32
2022-08-18T11:08:57.968Z,7.40
2022-08-18T11:11:41.003Z,8.00
2022-08-18T11:14:35.709Z,7.07
2022-08-18T11:17:26.479Z,7.32
2022-08-18T11:19:54.797Z,7.25
2022-08-18T11:22:33.014Z,7.07
2022-08-18T11:25:04.346Z,7.90
2022-08-18T11:27:35.912Z,6.72
2022-08-18T11:30:06.507Z,6.50
2022-08-18T11:32:37.134Z,7.03
2022-08-18T11:35:10.659Z,6.07
2022-08-18T11:37:54.780Z,6.57
2022-08-18T11:49:33.443Z,6.28
2022-08-18T11:52:25.015Z,6.05
2022-08-18T11:55:16.904Z,6.22
2022-08-18T11:57:59.187Z,5.60
2022-08-18T12:03:28.467Z,5.32
2022-08-18T12:06:01.055Z,6.10
2022-08-18T12:09:01.539Z,6.03
2022-08-18T12:11:31.423Z,5.28
2022-08-18T12:16:50.219Z,6.22
2022-08-18T12:19:19.530Z,5.18
2022-08-18T12:21:52.469Z,5.65
2022-08-18T12:24:36.727Z,5.28
2022-08-18T12:27:20.653Z,5.10
2022-08-18T12:29:49.401Z,5.78
2022-08-18T12:35:09.128Z,5.40
2022-08-18T12:40:25.482Z,5.50
2022-08-18T12:42:55.693Z,5.70
2022-08-18T12:45:41.396Z,4.70
2022-08-18T12:48:09.236Z,5.10
2022-08-18T12:53:30.538Z,5.13
2022-08-18T12:56:12.544Z,5.47
2022-08-18T12:58:40.572Z,5.20
2022-08-18T13:01:07.545Z,5.95
2022-08-18T13:06:23.902Z,6.70
2022-08-18T13:08:55.437Z,6.80
2022-08-18T13:11:25.131Z,5.93
2022-08-18T13:13:55.970Z,5.55
2022-08-18T13:16:39.056Z,5.55
2022-08-18T13:19:15.069Z,6.18
2022-08-18T13:21:43.028Z,5.63
2022-08-18T13:24:12.672Z,5.55
2022-08-18T13:26:45.787Z,5.70
2022-08-18T13:29:14.510Z,6.25
2022-08-18T13:31:41.170Z,5.72
2022-08-18T13:34:19.317Z,5.40
2022-08-18T13:36:48.215Z,5.95
2022-08-18T13:39:19.300Z,5.22
2022-08-18T13:41:48.761Z,5.63
2022-08-18T13:44:18.890Z,4.72
2022-08-18T13:46:48.899Z,5.53
2022-08-18T13:49:18.614Z,5.97
2022-08-18T13:51:59.157Z,5.68
2022-08-18T13:54:33.975Z,5.65
2022-08-18T13:57:03.313Z,5.80
2022-08-18T13:59:33.145Z,5.68
2022-08-18T14:02:05.874Z,5.40
2022-08-18T14:04:36.257Z,5.45
2022-08-18T14:07:08.899Z,5.65
2022-08-18T14:09:37.945Z,5.10
2022-08-18T14:12:21.625Z,5.45
2022-08-18T14:14:57.291Z,5.50
2022-08-18T14:17:28.429Z,5.72
2022-08-18T14:20:14.874Z,5.80
2022-08-18T14:22:57.486Z,5.47
2022-08-18T14:25:39.844Z,5.53
2022-08-18T14:28:06.613Z,5.00
2022-08-18T14:30:34.273Z,5.70
2022-08-18T14:33:01.155Z,5.63
2022-08-18T14:35:34.643Z,5.63
2022-08-18T14:38:16.293Z,5.72
2022-08-18T14:40:45.378Z,5.97
2022-08-18T14:43:14.503Z,5.57
2022-08-18T14:45:47.432Z,5.93
2022-08-18T14:48:18.740Z,6.15
2022-08-18T14:50:49.757Z,5.95
2022-08-18T14:53:20.330Z,6.03
2022-08-18T14:55:49.446Z,5.50
2022-08-18T14:58:16.549Z,5.85
2022-08-18T15:00:53.320Z,5.78
2022-08-18T15:03:28.191Z,5.78
2022-08-18T15:05:58.045Z,5.40
2022-08-18T15:08:26.300Z,6.80
2022-08-18T15:10:53.853Z,5.00
2022-08-18T15:13:26.304Z,5.72
2022-08-18T15:15:53.653Z,6.20
2022-08-18T15:18:22.635Z,5.90
2022-08-18T15:21:10.511Z,4.93
2022-08-18T15:26:28.261Z,4.43
2022-08-18T15:29:00.224Z,4.38
2022-08-18T15:34:14.987Z,4.32
2022-08-18T15:36:48.068Z,3.47
2022-08-18T15:39:15.261Z,2.83
2022-08-18T15:41:46.604Z,3.10
2022-08-18T15:44:17.129Z,2.80
2022-08-18T15:46:47.306Z,2.58
2022-08-18T15:49:21.756Z,2.40
2022-08-18T15:51:50.404Z,2.45
2022-08-18T15:54:27.833Z,2.50
2022-08-18T15:56:57.747Z,2.08
2022-08-18T15:59:49.737Z,2.58
2022-08-18T16:02:22.112Z,3.10
2022-08-18T16:04:50.545Z,4.32
2022-08-18T16:07:17.822Z,2.75
2022-08-18T16:09:58.585Z,4.28
2022-08-18T16:12:25.215Z,3.25
2022-08-18T16:14:53.322Z,5.35
2022-08-18T16:17:48.674Z,3.20
2022-08-18T16:20:18.609Z,4.15
2022-08-18T16:22:46.914Z,3.92
2022-08-18T16:25:14.926Z,4.15
2022-08-18T16:27:50.131Z,4.10
2022-08-18T16:30:23.100Z,4.25
2022-08-18T16:32:56.628Z,3.20
2022-08-18T16:35:25.665Z,3.47
2022-08-18T16:37:52.564Z,3.28
2022-08-18T16:40:20.406Z,3.17
2022-08-18T16:42:47.957Z,2.88
2022-08-18T16:45:21.692Z,3.20
2022-08-18T16:47:48.529Z,3.22
2022-08-18T16:50:18.235Z,3.15
2022-08-18T16:52:45.021Z,3.80
2022-08-18T16:55:16.363Z,3.88
2022-08-18T16:57:59.787Z,3.20
2022-08-18T17:00:43.626Z,2.47
2022-08-18T17:03:25.647Z,3.05
2022-08-18T17:06:10.891Z,3.05
2022-08-18T17:08:38.928Z,3.08
2022-08-18T17:11:09.569Z,4.18
2022-08-18T17:13:45.702Z,4.10
2022-08-18T17:16:13.540Z,2.30
2022-08-18T17:18:41.459Z,2.13
2022-08-18T17:21:12.789Z,2.40
2022-08-18T17:23:41.984Z,2.42
2022-08-18T17:26:16.484Z,2.80
2022-08-18T17:28:52.596Z,3.40
2022-08-18T17:31:24.499Z,3.35
2022-08-18T17:33:54.847Z,3.70
2022-08-18T17:36:32.875Z,3.58
2022-08-18T17:39:02.940Z,2.33
2022-08-18T17:41:29.693Z,2.15
2022-08-18T17:44:00.853Z,2.50
2022-08-18T17:46:38.321Z,3.75
2022-08-18T17:49:45.889Z,2.03
2022-08-18T17:52:14.932Z,2.15
2022-08-18T17:54:49.639Z,1.50
2022-08-18T17:57:23.956Z,1.75
2022-08-18T17:59:57.984Z,1.70
2022-08-18T18:02:29.142Z,1.85
2022-08-18T18:05:00.687Z,1.70
2022-08-18T18:07:29.686Z,2.10
2022-08-18T18:10:03.063Z,2.72
2022-08-18T18:12:32.261Z,1.80
2022-08-18T18:15:00.630Z,1.98
2022-08-18T18:17:37.843Z,2.28
2022-08-18T18:20:32.893Z,2.50
2022-08-18T18:23:21.626Z,2.30
2022-08-18T18:25:50.275Z,2.42
2022-08-18T18:28:33.862Z,1.90
2022-08-18T18:31:22.267Z,2.10
2022-08-18T18:33:56.900Z,2.20
2022-08-18T18:36:40.333Z,2.10
2022-08-18T18:39:10.645Z,2.67
2022-08-18T18:41:40.615Z,2.55
2022-08-18T18:44:10.863Z,2.42
2022-08-18T18:47:12.718Z,2.40
2022-08-18T18:49:46.855Z,2.67
2022-08-18T18:52:14.511Z,1.70
2022-08-18T18:54:53.770Z,2.17
2022-08-18T18:57:35.086Z,2.08
2022-08-18T19:00:22.709Z,2.08
2022-08-18T19:03:21.723Z,1.60
2022-08-18T19:06:03.606Z,1.70
2022-08-18T19:08:42.585Z,2.47
2022-08-18T19:11:16.004Z,3.00
2022-08-18T19:13:49.499Z,2.78
2022-08-18T19:16:36.671Z,2.90
2022-08-18T19:19:35.555Z,3.42
2022-08-18T19:22:24.217Z,2.95
2022-08-18T19:25:00.579Z,3.60
2022-08-18T19:27:35.137Z,3.25
2022-08-18T19:30:11.875Z,3.15
2022-08-18T19:32:47.826Z,3.10
2022-08-18T19:38:04.950Z,4.05
2022-08-18T19:40:42.611Z,3.72
2022-08-18T19:43:12.715Z,3.38
2022-08-18T19:45:55.463Z,2.85
2022-08-18T19:48:37.537Z,2.80
2022-08-18T19:51:13.879Z,2.90
2022-08-18T19:54:04.391Z,2.85
2022-08-18T19:56:46.349Z,2.03
2022-08-18T19:59:35.035Z,2.03
2022-08-18T20:02:41.800Z,2.05
2022-08-18T20:05:30.649Z,1.87
2022-08-18T20:08:25.791Z,2.20
2022-08-18T20:11:15.150Z,2.15
2022-08-18T20:13:44.699Z,2.65
2022-08-18T20:16:28.533Z,2.30
2022-08-18T20:19:30.673Z,2.25
2022-08-18T20:22:05.320Z,2.63
2022-08-18T20:24:44.515Z,3.65
2022-08-18T20:27:32.925Z,3.72
2022-08-18T20:30:26.543Z,4.00
2022-08-18T20:33:08.603Z,3.92
2022-08-18T20:35:53.851Z,3.53
2022-08-18T20:38:32.630Z,2.80
2022-08-18T20:41:40.305Z,3.28
2022-08-18T20:44:42.292Z,3.50
2022-08-18T20:47:24.092Z,2.90
2022-08-18T20:50:21.170Z,2.95
2022-08-18T20:55:27.351Z,2.92
2022-08-18T20:58:05.487Z,2.80
2022-08-18T21:00:36.225Z,2.67
2022-08-18T21:03:11.760Z,3.08
2022-08-18T21:05:44.127Z,2.90
2022-08-18T21:08:29.443Z,3.30
2022-08-18T21:11:08.239Z,3.20
2022-08-18T21:13:47.746Z,3.17
2022-08-18T21:16:38.250Z,3.42
2022-08-18T21:19:23.429Z,2.85
2022-08-18T21:21:55.072Z,3.42
2022-08-18T21:24:29.509Z,3.05
2022-08-18T21:27:02.546Z,3.10
2022-08-18T21:29:46.907Z,2.88
2022-08-18T21:32:22.696Z,2.75
2022-08-18T21:34:49.949Z,2.67
2022-08-18T21:37:18.926Z,2.60
2022-08-18T21:39:58.017Z,2.20
2022-08-18T21:42:29.738Z,2.97
2022-08-18T21:45:00.920Z,2.72
2022-08-18T21:47:35.689Z,3.10
2022-08-18T21:50:15.809Z,2.40
2022-08-18T21:53:05.423Z,2.63
2022-08-18T21:55:37.421Z,2.95
2022-08-18T22:01:26.006Z,2.78
2022-08-18T22:04:40.992Z,2.83
2022-08-18T22:07:34.647Z,3.00
2022-08-18T22:10:46.105Z,2.75
2022-08-18T22:13:44.211Z,2.72
2022-08-18T22:16:30.792Z,2.90
2022-08-18T22:19:16.509Z,2.78
2022-08-18T22:22:45.472Z,2.83
2022-08-18T22:25:22.727Z,2.33
2022-08-18T22:27:50.397Z,3.40
2022-08-18T22:30:18.068Z,2.95
2022-08-18T22:32:46.409Z,3.33
2022-08-18T22:35:13.066Z,3.40
2022-08-18T22:37:48.706Z,2.38
2022-08-18T22:40:17.485Z,3.03
2022-08-18T22:42:51.305Z,2.78
2022-08-18T22:45:18.881Z,3.00
2022-08-18T22:47:46.648Z,2.67
2022-08-18T22:50:14.093Z,2.85
2022-08-18T22:52:46.618Z,3.17
2022-08-18T22:55:18.374Z,2.97
2022-08-18T22:57:50.276Z,2.80
2022-08-18T23:00:21.990Z,2.30
2022-08-18T23:02:49.654Z,3.25
2022-08-18T23:05:16.508Z,2.65
2022-08-18T23:07:46.155Z,3.25
2022-08-18T23:10:14.037Z,2.72
2022-08-18T23:12:43.242Z,2.78
2022-08-18T23:15:11.839Z,3.38
2022-08-18T23:17:40.280Z,3.10
2022-08-18T23:20:11.508Z,2.72
2022-08-18T23:22:39.641Z,3.42
2022-08-18T23:25:09.114Z,2.80
2022-08-18T23:27:36.608Z,2.63
2022-08-18T23:30:04.868Z,2.83
2022-08-18T23:32:39.030Z,3.00
2022-08-18T23:35:15.060Z,2.88
2022-08-18T23:37:42.689Z,3.00
2022-08-18T23:40:15.894Z,3.17
2022-08-18T23:42:42.695Z,3.42
2022-08-18T23:45:10.361Z,3.15
2022-08-18T23:47:37.042Z,3.00
2022-08-18T23:50:08.438Z,3.50
2022-08-18T23:52:35.085Z,3.20
2022-08-18T23:55:09.670Z,2.83
2022-08-18T23:57:36.679Z,3.05
